createdAt,value
2019-04-26T00:00:39.943Z,82.29
2019-04-26T00:01:39.913Z,82.09
2019-04-26T00:02:39.918Z,82.20
2019-04-26T00:03:39.892Z,82.20
2019-04-26T00:04:39.891Z,82.29
2019-04-26T00:05:39.872Z,82.60
2019-04-26T00:06:39.905Z,82.43
2019-04-26T00:07:39.872Z,82.95
2019-04-26T00:08:39.842Z,82.43
2019-04-26T00:09:39.839Z,82.95
2019-04-26T00:10:39.829Z,82.95
2019-04-26T00:11:39.808Z,83.05
2019-04-26T00:12:39.819Z,83.05
2019-04-26T00:13:39.793Z,82.95
2019-04-26T00:14:40.297Z,83.15
2019-04-26T00:15:39.775Z,83.25
2019-04-26T00:16:39.768Z,83.46
2019-04-26T00:17:39.748Z,83.46
2019-04-26T00:18:39.726Z,83.25
2019-04-26T00:19:39.725Z,83.05
2019-04-26T00:20:39.708Z,83.36
2019-04-26T00:21:39.885Z,83.05
2019-04-26T00:22:39.702Z,83.36
2019-04-26T00:23:39.684Z,83.60
2019-04-26T00:24:39.664Z,83.39
2019-04-26T00:25:39.675Z,83.70
2019-04-26T00:26:39.643Z,83.50
2019-04-26T00:27:39.642Z,83.50
2019-04-26T00:28:39.642Z,83.81
2019-04-26T00:29:39.611Z,83.81
2019-04-26T00:30:39.629Z,84.11
2019-04-26T00:31:39.601Z,84.31
2019-04-26T00:32:39.599Z,84.42
2019-04-26T00:33:39.580Z,84.31
2019-04-26T00:34:39.559Z,84.42
2019-04-26T00:35:47.477Z,84.42
2019-04-26T00:36:40.549Z,84.72
2019-04-26T00:37:39.531Z,84.93
2019-04-26T00:38:39.527Z,84.83
2019-04-26T00:39:39.508Z,85.07
2019-04-26T00:40:39.515Z,84.72
2019-04-26T00:41:39.489Z,84.87
2019-04-26T00:42:39.478Z,84.97
2019-04-26T00:43:39.486Z,84.97
2019-04-26T00:44:39.471Z,85.17
2019-04-26T00:45:39.445Z,84.97
2019-04-26T00:46:39.435Z,85.07
2019-04-26T00:47:39.438Z,85.17
2019-04-26T00:48:39.434Z,85.38
2019-04-26T00:49:43.981Z,85.28
2019-04-26T00:50:39.404Z,85.48
2019-04-26T00:51:39.382Z,85.79
2019-04-26T00:52:39.447Z,85.58
2019-04-26T00:53:39.372Z,85.58
2019-04-26T00:54:39.349Z,85.48
2019-04-26T00:55:39.354Z,85.79
2019-04-26T00:56:39.330Z,85.99
2019-04-26T00:57:39.348Z,86.20
2019-04-26T00:58:39.302Z,86.30
2019-04-26T00:59:39.289Z,86.40
2019-04-26T01:00:39.290Z,86.40
2019-04-26T01:01:39.278Z,86.51
2019-04-26T01:02:39.258Z,86.51
2019-04-26T01:03:39.257Z,86.61
2019-04-26T01:04:39.239Z,86.61
2019-04-26T01:05:39.237Z,86.30
2019-04-26T01:06:39.219Z,86.30
2019-04-26T01:07:39.216Z,86.20
2019-04-26T01:08:39.196Z,86.10
2019-04-26T01:09:39.220Z,85.99
2019-04-26T01:10:39.183Z,85.96
2019-04-26T01:11:39.174Z,85.96
2019-04-26T01:12:39.153Z,86.05
2019-04-26T01:13:39.154Z,86.05
2019-04-26T01:14:39.143Z,86.05
2019-04-26T01:15:39.132Z,86.46
2019-04-26T01:16:39.111Z,86.67
2019-04-26T01:17:39.102Z,86.36
2019-04-26T01:18:39.081Z,86.36
2019-04-26T01:19:39.103Z,86.46
2019-04-26T01:20:39.082Z,86.26
2019-04-26T01:21:39.060Z,86.46
2019-04-26T01:22:39.059Z,86.57
2019-04-26T01:23:39.039Z,86.67
2019-04-26T01:24:39.034Z,86.77
2019-04-26T01:25:39.039Z,86.67
2019-04-26T01:26:38.998Z,86.88
2019-04-26T01:27:38.996Z,86.98
2019-04-26T01:28:38.979Z,87.18
2019-04-26T01:29:38.975Z,87.18
2019-04-26T01:30:38.986Z,87.08
2019-04-26T01:31:38.956Z,87.29
2019-04-26T01:32:38.953Z,87.32
2019-04-26T01:33:38.935Z,87.22
2019-04-26T01:34:38.924Z,87.12
2019-04-26T01:35:38.926Z,87.12
2019-04-26T01:36:38.909Z,86.91
2019-04-26T01:37:38.895Z,87.12
2019-04-26T01:38:38.873Z,87.22
2019-04-26T01:39:38.863Z,87.32
2019-04-26T01:40:38.854Z,87.63
2019-04-26T01:41:38.854Z,87.63
2019-04-26T01:42:38.831Z,87.63
2019-04-26T01:43:38.823Z,87.63
2019-04-26T01:44:38.811Z,87.84
2019-04-26T01:45:38.802Z,87.94
2019-04-26T01:46:38.810Z,87.73
2019-04-26T01:47:38.779Z,87.84
2019-04-26T01:48:38.769Z,88.04
2019-04-26T01:49:38.763Z,88.04
2019-04-26T01:50:38.757Z,88.14
2019-04-26T01:51:38.750Z,88.35
2019-04-26T01:52:38.729Z,87.94
2019-04-26T01:53:38.718Z,88.04
2019-04-26T01:54:38.716Z,88.39
2019-04-26T01:55:38.695Z,88.39
2019-04-26T01:56:38.699Z,88.49
2019-04-26T01:57:38.675Z,88.49
2019-04-26T01:58:38.665Z,88.39
2019-04-26T01:59:38.654Z,88.49
2019-04-26T02:00:38.644Z,88.49
2019-04-26T02:01:38.624Z,88.49
2019-04-26T02:02:38.637Z,88.70
2019-04-26T02:03:38.615Z,88.80
2019-04-26T02:04:38.592Z,88.80
2019-04-26T02:05:38.592Z,88.90
2019-04-26T02:06:38.580Z,88.70
2019-04-26T02:07:38.659Z,88.70
2019-04-26T02:08:38.560Z,88.49
2019-04-26T02:09:38.571Z,88.70
2019-04-26T02:10:38.556Z,88.39
2019-04-26T02:11:38.530Z,88.39
2019-04-26T02:12:38.511Z,88.39
2019-04-26T02:13:38.503Z,88.29
2019-04-26T02:14:38.526Z,88.29
2019-04-26T02:15:38.523Z,88.18
2019-04-26T02:16:38.467Z,88.29
2019-04-26T02:17:38.458Z,88.08
2019-04-26T02:18:38.447Z,87.88
2019-04-26T02:19:38.456Z,87.88
2019-04-26T02:20:38.434Z,87.77
2019-04-26T02:21:38.426Z,87.67
2019-04-26T02:22:38.406Z,87.98
2019-04-26T02:23:38.394Z,87.57
2019-04-26T02:24:38.384Z,87.57
2019-04-26T02:25:38.389Z,87.67
2019-04-26T02:26:38.364Z,87.61
2019-04-26T02:27:39.313Z,87.82
2019-04-26T02:28:38.342Z,87.82
2019-04-26T02:29:38.331Z,87.71
2019-04-26T02:30:38.342Z,87.88
2019-04-26T02:31:38.328Z,87.88
2019-04-26T02:32:38.320Z,87.57
2019-04-26T02:33:38.292Z,87.61
2019-04-26T02:34:38.526Z,87.71
2019-04-26T02:35:38.292Z,87.61
2019-04-26T02:36:56.108Z,87.71
2019-04-26T02:37:39.248Z,87.41
2019-04-26T02:38:38.244Z,87.51
2019-04-26T02:39:38.229Z,87.61
2019-04-26T02:40:38.230Z,87.51
2019-04-26T02:41:38.232Z,87.51
2019-04-26T02:42:38.229Z,87.71
2019-04-26T02:43:38.186Z,87.82
2019-04-26T02:44:38.450Z,87.92
2019-04-26T02:45:38.247Z,88.02
2019-04-26T02:46:38.177Z,88.02
2019-04-26T02:47:39.077Z,87.92
2019-04-26T02:48:38.170Z,88.02
2019-04-26T02:49:38.535Z,87.92
2019-04-26T02:50:38.458Z,88.12
2019-04-26T02:51:38.353Z,88.23
2019-04-26T02:52:39.161Z,88.43
2019-04-26T02:53:38.867Z,88.64
2019-04-26T02:54:38.406Z,88.43
2019-04-26T02:55:42.276Z,88.53
2019-04-26T02:56:40.007Z,88.64
2019-04-26T02:57:38.910Z,88.64
2019-04-26T02:58:39.141Z,88.43
2019-04-26T02:59:40.109Z,88.43
2019-04-26T03:00:39.166Z,88.43
2019-04-26T03:01:39.695Z,88.33
2019-04-26T03:02:40.231Z,88.33
2019-04-26T03:03:39.617Z,88.23
2019-04-26T03:04:39.347Z,88.23
2019-04-26T03:05:39.700Z,88.02
2019-04-26T03:06:39.110Z,88.23
2019-04-26T03:07:39.155Z,88.43
2019-04-26T03:08:39.377Z,88.74
2019-04-26T03:09:38.891Z,88.84
2019-04-26T03:10:38.658Z,88.94
2019-04-26T03:11:39.136Z,89.19
2019-04-26T03:12:39.456Z,89.29
2019-04-26T03:13:38.793Z,89.50
2019-04-26T03:14:38.497Z,89.60
2019-04-26T03:15:38.924Z,89.60
2019-04-26T03:16:39.443Z,89.70
2019-04-26T03:17:39.627Z,89.81
2019-04-26T03:18:39.404Z,89.70
2019-04-26T03:19:39.449Z,89.70
2019-04-26T03:20:38.352Z,89.60
2019-04-26T03:21:39.056Z,90.01
2019-04-26T03:22:39.382Z,89.90
2019-04-26T03:23:55.663Z,89.90
2019-04-26T03:24:40.489Z,89.81
2019-04-26T03:25:38.851Z,89.81
2019-04-26T03:26:39.499Z,89.81
2019-04-26T03:27:39.238Z,89.76
2019-04-26T03:28:40.004Z,89.66
2019-04-26T03:29:40.899Z,89.36
2019-04-26T03:30:44.451Z,89.25
2019-04-26T03:31:48.524Z,89.15
2019-04-26T03:32:48.743Z,89.25
2019-04-26T03:33:48.436Z,89.36
2019-04-26T03:34:46.516Z,89.36
2019-04-26T03:35:49.253Z,89.36
2019-04-26T03:36:40.788Z,89.25
2019-04-26T03:37:38.297Z,89.25
2019-04-26T03:38:38.304Z,89.04
2019-04-26T03:39:40.496Z,89.25
2019-04-26T03:40:38.982Z,89.45
2019-04-26T03:41:38.989Z,88.94
2019-04-26T03:42:38.880Z,88.74
2019-04-26T03:43:39.063Z,88.64
2019-04-26T03:44:38.856Z,88.84
2019-04-26T03:45:38.983Z,88.64
2019-04-26T03:46:39.042Z,88.64
2019-04-26T03:47:38.580Z,88.84
2019-04-26T03:48:39.284Z,89.04
2019-04-26T03:50:46.385Z,88.94
2019-04-26T03:51:46.359Z,88.74
2019-04-26T03:52:46.339Z,88.94
2019-04-26T03:53:46.331Z,88.94
2019-04-26T03:54:46.328Z,89.04
2019-04-26T03:55:46.321Z,89.25
2019-04-26T03:56:46.299Z,89.15
2019-04-26T03:57:46.299Z,89.15
2019-04-26T03:58:46.278Z,89.15
2019-04-26T03:59:46.276Z,89.36
2019-04-26T04:00:47.092Z,89.36
2019-04-26T04:01:46.333Z,89.36
2019-04-26T04:02:46.887Z,89.25
2019-04-26T04:03:47.781Z,89.25
2019-04-26T04:04:46.761Z,89.45
2019-04-26T04:05:47.775Z,89.66
2019-04-26T04:07:02.639Z,89.56
2019-04-26T04:07:51.273Z,89.56
2019-04-26T04:08:47.974Z,89.45
2019-04-26T04:09:46.798Z,89.45
2019-04-26T04:10:47.685Z,89.45
2019-04-26T04:11:47.466Z,89.25
2019-04-26T04:12:47.677Z,89.15
2019-04-26T04:13:50.475Z,88.84
2019-04-26T04:14:48.708Z,88.74
2019-04-26T04:15:46.725Z,88.53
2019-04-26T04:16:47.390Z,88.43
2019-04-26T04:17:48.215Z,88.74
2019-04-26T04:18:47.553Z,88.53
2019-04-26T04:19:47.432Z,88.43
2019-04-26T04:20:46.219Z,88.53
2019-04-26T04:21:47.042Z,88.94
2019-04-26T04:22:47.874Z,89.04
2019-04-26T04:23:47.163Z,89.04
2019-04-26T04:24:46.966Z,89.04
2019-04-26T04:25:47.325Z,88.94
2019-04-26T04:26:46.802Z,88.74
2019-04-26T04:27:47.913Z,88.94
2019-04-26T04:28:47.544Z,88.74
2019-04-26T04:29:51.064Z,88.98
2019-04-26T04:30:47.733Z,88.88
2019-04-26T04:31:47.671Z,89.09
2019-04-26T04:32:47.603Z,88.98
2019-04-26T04:33:47.860Z,89.29
2019-04-26T04:34:47.652Z,89.29
2019-04-26T04:35:47.385Z,89.29
2019-04-26T04:36:48.225Z,89.29
2019-04-26T04:38:05.925Z,89.29
2019-04-26T04:38:48.293Z,89.09
2019-04-26T04:39:46.526Z,89.09
2019-04-26T04:40:47.197Z,89.19
2019-04-26T04:41:46.994Z,89.29
2019-04-26T04:42:45.930Z,89.39
2019-04-26T04:43:48.731Z,89.50
2019-04-26T04:44:45.971Z,89.39
2019-04-26T04:45:47.565Z,89.39
2019-04-26T04:46:47.470Z,89.50
2019-04-26T04:47:47.994Z,89.81
2019-04-26T04:48:46.926Z,90.01
2019-04-26T04:49:47.007Z,89.70
2019-04-26T04:50:47.539Z,89.60
2019-04-26T04:51:46.885Z,89.45
2019-04-26T04:52:46.392Z,89.25
2019-04-26T04:53:46.512Z,89.36
2019-04-26T04:54:54.800Z,89.25
2019-04-26T04:55:47.879Z,89.25
2019-04-26T04:56:45.760Z,89.25
2019-04-26T04:57:45.950Z,89.25
2019-04-26T04:58:46.325Z,89.56
2019-04-26T04:59:46.104Z,89.36
2019-04-26T05:00:45.623Z,89.25
2019-04-26T05:01:46.258Z,89.15
2019-04-26T05:02:46.590Z,88.94
2019-04-26T05:03:45.590Z,89.04
2019-04-26T05:04:45.575Z,89.15
2019-04-26T05:05:45.560Z,89.04
2019-04-26T05:06:45.548Z,89.04
2019-04-26T05:07:45.546Z,89.04
2019-04-26T05:08:46.371Z,88.94
2019-04-26T05:09:45.509Z,88.94
2019-04-26T05:10:45.584Z,88.84
2019-04-26T05:11:45.832Z,88.64
2019-04-26T05:12:45.813Z,88.74
2019-04-26T05:13:46.352Z,88.84
2019-04-26T05:14:46.211Z,88.84
2019-04-26T05:15:46.380Z,88.94
2019-04-26T05:16:46.459Z,89.04
2019-04-26T05:17:46.151Z,89.11
2019-04-26T05:18:46.550Z,88.94
2019-04-26T05:19:46.762Z,88.84
2019-04-26T05:20:45.929Z,88.84
2019-04-26T05:21:45.425Z,88.94
2019-04-26T05:22:46.335Z,89.25
2019-04-26T05:23:46.230Z,89.11
2019-04-26T05:24:45.737Z,88.90
2019-04-26T05:25:46.511Z,88.80
2019-04-26T05:26:46.112Z,88.90
2019-04-26T05:27:46.781Z,88.90
2019-04-26T05:28:46.221Z,88.59
2019-04-26T05:29:46.497Z,88.70
2019-04-26T05:30:46.488Z,88.70
2019-04-26T05:31:47.081Z,88.70
2019-04-26T05:32:47.125Z,88.70
2019-04-26T05:33:46.126Z,88.80
2019-04-26T05:34:46.232Z,88.59
2019-04-26T05:35:46.247Z,88.14
2019-04-26T05:36:46.284Z,87.49
2019-04-26T05:37:45.215Z,86.81
2019-04-26T05:38:45.213Z,87.02
2019-04-26T05:39:45.184Z,86.67
2019-04-26T05:40:45.184Z,86.26
2019-04-26T05:41:45.178Z,86.16
2019-04-26T05:42:45.172Z,86.16
2019-04-26T05:43:45.197Z,86.16
2019-04-26T05:44:45.147Z,86.16
2019-04-26T05:45:45.133Z,86.05
2019-04-26T05:46:45.122Z,85.96
2019-04-26T05:47:45.120Z,85.71
2019-04-26T05:48:45.104Z,85.50
2019-04-26T05:49:45.084Z,85.50
2019-04-26T05:50:45.071Z,85.75
2019-04-26T05:51:45.069Z,86.05
2019-04-26T05:52:45.080Z,86.36
2019-04-26T05:53:45.048Z,86.36
2019-04-26T05:54:45.029Z,86.43
2019-04-26T05:55:45.027Z,86.22
2019-04-26T05:56:45.017Z,86.02
2019-04-26T05:57:45.016Z,85.61
2019-04-26T05:58:44.997Z,85.40
2019-04-26T05:59:45.008Z,85.20
2019-04-26T06:00:44.966Z,85.40
2019-04-26T06:01:44.956Z,85.50
2019-04-26T06:02:44.945Z,85.50
2019-04-26T06:03:44.937Z,85.30
2019-04-26T06:04:44.924Z,85.20
2019-04-26T06:05:44.923Z,85.61
2019-04-26T06:06:44.903Z,85.26
2019-04-26T06:07:44.908Z,84.85
2019-04-26T06:08:44.900Z,84.30
2019-04-26T06:09:44.873Z,83.20
2019-04-26T06:10:44.866Z,81.32
2019-04-26T06:11:44.862Z,80.91
2019-04-26T06:12:44.874Z,81.12
2019-04-26T06:13:44.822Z,81.37
2019-04-26T06:14:44.812Z,82.08
2019-04-26T06:15:44.821Z,81.98
2019-04-26T06:16:44.789Z,81.70
2019-04-26T06:17:44.779Z,76.86
2019-04-26T06:18:44.790Z,71.03
2019-04-26T06:19:44.770Z,67.14
2019-04-26T06:20:44.768Z,66.77
2019-04-26T06:21:44.759Z,68.19
2019-04-26T06:22:44.768Z,70.08
2019-04-26T06:23:44.716Z,71.87
2019-04-26T06:24:44.721Z,73.23
2019-04-26T06:25:44.706Z,74.04
2019-04-26T06:26:44.696Z,74.15
2019-04-26T06:27:44.676Z,74.04
2019-04-26T06:28:44.673Z,74.18
2019-04-26T06:29:44.676Z,74.69
2019-04-26T06:30:45.535Z,75.20
2019-04-26T06:31:44.633Z,75.95
2019-04-26T06:32:56.225Z,76.56
2019-04-26T06:33:45.664Z,76.01
2019-04-26T06:34:44.615Z,75.30
2019-04-26T06:35:44.629Z,74.96
2019-04-26T06:36:44.592Z,74.04
2019-04-26T06:37:44.571Z,74.04
2019-04-26T06:38:44.561Z,73.54
2019-04-26T06:39:44.554Z,73.63
2019-04-26T06:40:44.542Z,73.50
2019-04-26T06:41:44.540Z,73.30
2019-04-26T06:42:44.512Z,72.25
2019-04-26T06:43:44.508Z,72.65
2019-04-26T06:44:44.489Z,72.17
2019-04-26T06:45:44.499Z,72.69
2019-04-26T06:46:46.160Z,74.04
2019-04-26T06:47:44.476Z,74.65
2019-04-26T06:48:44.468Z,74.15
2019-04-26T06:49:44.447Z,73.63
2019-04-26T06:50:44.455Z,73.63
2019-04-26T06:51:44.426Z,73.54
2019-04-26T06:52:44.417Z,73.30
2019-04-26T06:53:44.406Z,72.89
2019-04-26T06:54:44.385Z,72.75
2019-04-26T06:55:44.387Z,72.89
2019-04-26T06:56:44.421Z,73.23
2019-04-26T06:57:44.355Z,73.23
2019-04-26T06:58:44.350Z,73.87
2019-04-26T06:59:44.333Z,75.02
2019-04-26T07:00:44.343Z,75.64
2019-04-26T07:01:44.313Z,76.28
2019-04-26T07:02:44.302Z,76.49
2019-04-26T07:03:44.301Z,76.49
2019-04-26T07:04:44.292Z,76.90
2019-04-26T07:05:44.283Z,76.69
2019-04-26T07:06:44.319Z,75.88
2019-04-26T07:07:44.250Z,75.95
2019-04-26T07:08:56.395Z,75.84
2019-04-26T07:09:45.221Z,75.54
2019-04-26T07:10:44.228Z,75.09
2019-04-26T07:11:44.221Z,75.23
2019-04-26T07:12:44.209Z,75.84
2019-04-26T07:13:44.178Z,75.33
2019-04-26T07:14:44.171Z,75.78
2019-04-26T07:15:44.163Z,75.74
2019-04-26T07:16:44.158Z,74.55
2019-04-26T07:17:44.138Z,71.06
2019-04-26T07:18:44.126Z,66.50
2019-04-26T07:19:44.118Z,66.16
2019-04-26T07:20:44.108Z,64.76
2019-04-26T07:21:44.117Z,64.99
2019-04-26T07:22:44.086Z,66.63
2019-04-26T07:23:44.085Z,69.23
2019-04-26T07:24:44.065Z,70.11
2019-04-26T07:25:44.055Z,68.32
2019-04-26T07:26:44.053Z,68.46
2019-04-26T07:27:44.060Z,67.48
2019-04-26T07:28:44.045Z,65.73
2019-04-26T07:29:44.011Z,66.80
2019-04-26T07:30:43.993Z,67.68
2019-04-26T07:31:43.993Z,69.74
2019-04-26T07:32:43.973Z,69.98
2019-04-26T07:33:43.963Z,70.38
2019-04-26T07:34:43.964Z,71.12
2019-04-26T07:35:43.941Z,72.58
2019-04-26T07:36:43.950Z,73.43
2019-04-26T07:37:43.921Z,74.08
2019-04-26T07:38:43.923Z,74.28
2019-04-26T07:39:43.900Z,74.52
2019-04-26T07:40:43.890Z,75.23
2019-04-26T07:41:43.898Z,75.02
2019-04-26T07:42:43.870Z,75.23
2019-04-26T07:43:43.866Z,75.37
2019-04-26T07:44:43.851Z,75.47
2019-04-26T07:45:43.838Z,75.78
2019-04-26T07:46:43.838Z,76.08
2019-04-26T07:47:44.392Z,76.15
2019-04-26T07:48:43.796Z,76.15
2019-04-26T07:49:43.808Z,75.70
2019-04-26T07:50:43.798Z,74.69
2019-04-26T07:51:43.785Z,73.06
2019-04-26T07:52:44.078Z,69.91
2019-04-26T07:53:43.765Z,69.30
2019-04-26T07:54:43.737Z,69.34
2019-04-26T07:55:43.724Z,70.55
2019-04-26T07:56:43.732Z,68.96
2019-04-26T07:57:43.715Z,68.90
2019-04-26T07:58:43.703Z,69.60
2019-04-26T07:59:43.693Z,67.38
2019-04-26T08:00:45.106Z,66.84
2019-04-26T08:01:43.661Z,66.97
2019-04-26T08:02:43.672Z,67.18
2019-04-26T08:03:43.642Z,66.37
2019-04-26T08:04:43.621Z,68.26
2019-04-26T08:05:43.621Z,68.66
2019-04-26T08:06:43.611Z,68.59
2019-04-26T08:07:43.631Z,69.00
2019-04-26T08:08:43.592Z,69.81
2019-04-26T08:09:46.100Z,69.95
2019-04-26T08:10:43.559Z,70.35
2019-04-26T08:11:43.558Z,69.64
2019-04-26T08:12:43.563Z,70.45
2019-04-26T08:13:43.528Z,71.36
2019-04-26T08:14:43.528Z,70.35
2019-04-26T08:15:43.540Z,69.23
2019-04-26T08:16:43.518Z,69.54
2019-04-26T08:17:43.498Z,69.10
2019-04-26T08:18:43.477Z,62.64
2019-04-26T08:19:43.478Z,61.96
2019-04-26T08:20:43.455Z,61.80
2019-04-26T08:21:47.919Z,60.82
2019-04-26T08:22:44.435Z,59.55
2019-04-26T08:23:43.445Z,53.65
2019-04-26T08:24:44.155Z,51.32
2019-04-26T08:25:43.434Z,48.26
2019-04-26T08:26:43.386Z,45.97
2019-04-26T08:27:43.383Z,46.84
2019-04-26T08:28:43.385Z,48.46
2019-04-26T08:29:43.372Z,48.99
2019-04-26T08:30:44.771Z,51.14
2019-04-26T08:31:43.343Z,53.27
2019-04-26T08:32:43.322Z,56.92
2019-04-26T08:33:48.942Z,55.08
2019-04-26T08:34:44.330Z,54.08
2019-04-26T08:35:44.454Z,51.67
2019-04-26T08:36:44.318Z,49.69
2019-04-26T08:37:43.272Z,46.07
2019-04-26T08:38:43.270Z,46.00
2019-04-26T08:39:45.683Z,44.61
2019-04-26T08:40:43.244Z,42.23
2019-04-26T08:41:43.221Z,44.05
2019-04-26T08:42:43.219Z,48.24
2019-04-26T08:43:43.220Z,50.61
2019-04-26T08:44:43.200Z,52.39
2019-04-26T08:45:44.110Z,54.30
2019-04-26T08:46:44.179Z,52.80
2019-04-26T08:47:46.060Z,54.88
2019-04-26T08:48:44.158Z,57.05
2019-04-26T08:49:43.139Z,58.22
2019-04-26T08:50:45.907Z,58.85
2019-04-26T08:51:43.132Z,60.29
2019-04-26T08:52:43.129Z,60.80
2019-04-26T08:53:43.097Z,59.21
2019-04-26T08:54:43.115Z,60.09
2019-04-26T08:55:43.086Z,60.72
2019-04-26T08:56:43.077Z,60.85
2019-04-26T08:57:43.068Z,63.01
2019-04-26T08:58:43.056Z,61.46
2019-04-26T08:59:43.056Z,61.59
2019-04-26T09:00:43.046Z,62.63
2019-04-26T09:01:45.471Z,63.17
2019-04-26T09:02:43.005Z,63.47
2019-04-26T09:03:43.005Z,63.40
2019-04-26T09:04:43.013Z,63.70
2019-04-26T09:05:45.681Z,62.69
2019-04-26T09:06:43.964Z,63.30
2019-04-26T09:07:42.953Z,63.50
2019-04-26T09:08:43.450Z,63.60
2019-04-26T09:09:42.934Z,63.67
2019-04-26T09:10:43.298Z,62.86
2019-04-26T09:11:42.913Z,63.17
2019-04-26T09:12:42.901Z,63.27
2019-04-26T09:13:42.912Z,63.78
2019-04-26T09:14:42.890Z,62.66
2019-04-26T09:15:42.881Z,63.17
2019-04-26T09:16:50.114Z,61.95
2019-04-26T09:17:43.842Z,63.09
2019-04-26T09:18:47.977Z,63.53
2019-04-26T09:19:43.833Z,64.14
2019-04-26T09:20:44.270Z,64.75
2019-04-26T09:21:42.840Z,64.34
2019-04-26T09:22:42.790Z,63.90
2019-04-26T09:23:44.365Z,63.40
2019-04-26T09:24:45.455Z,63.09
2019-04-26T09:25:42.783Z,62.56
2019-04-26T09:26:46.714Z,61.76
2019-04-26T09:27:43.729Z,60.12
2019-04-26T09:28:42.747Z,59.28
2019-04-26T09:29:42.717Z,59.61
2019-04-26T09:30:47.426Z,58.80
2019-04-26T09:31:42.696Z,59.11
2019-04-26T09:32:42.686Z,58.58
2019-04-26T09:33:42.685Z,58.58
2019-04-26T09:34:42.854Z,58.60
2019-04-26T09:35:42.675Z,58.80
2019-04-26T09:36:42.671Z,59.31
2019-04-26T09:37:42.634Z,58.91
2019-04-26T09:38:42.635Z,60.42
2019-04-26T09:39:43.467Z,60.22
2019-04-26T09:40:42.632Z,60.52
2019-04-26T09:41:42.617Z,59.31
2019-04-26T09:42:42.582Z,58.20
2019-04-26T09:43:42.593Z,57.87
2019-04-26T09:44:43.028Z,57.16
2019-04-26T09:45:42.559Z,57.06
2019-04-26T09:46:44.341Z,57.14
2019-04-26T09:47:42.533Z,57.81
2019-04-26T09:48:42.523Z,56.12
2019-04-26T09:49:42.512Z,56.43
2019-04-26T09:50:42.501Z,57.14
2019-04-26T09:51:42.481Z,57.34
2019-04-26T09:52:42.470Z,57.36
2019-04-26T09:53:43.466Z,56.65
2019-04-26T09:54:42.453Z,57.16
2019-04-26T09:55:42.449Z,56.76
2019-04-26T09:56:42.449Z,57.06
2019-04-26T09:57:42.439Z,57.31
2019-04-26T09:58:42.423Z,57.52
2019-04-26T09:59:42.389Z,58.23
2019-04-26T10:00:44.073Z,59.47
2019-04-26T10:01:43.387Z,59.77
2019-04-26T10:02:42.371Z,59.14
2019-04-26T10:03:42.361Z,59.03
2019-04-26T10:04:42.336Z,59.74
2019-04-26T10:05:42.333Z,59.87
2019-04-26T10:06:42.335Z,59.67
2019-04-26T10:07:42.316Z,59.97
2019-04-26T10:08:43.353Z,59.47
2019-04-26T10:09:42.285Z,59.56
2019-04-26T10:10:42.286Z,60.48
2019-04-26T10:11:43.587Z,61.21
2019-04-26T10:12:42.254Z,60.81
2019-04-26T10:13:42.248Z,60.68
2019-04-26T10:14:42.233Z,59.67
2019-04-26T10:15:42.222Z,59.54
2019-04-26T10:16:42.470Z,58.63
2019-04-26T10:17:42.203Z,58.60
2019-04-26T10:18:42.191Z,58.70
2019-04-26T10:19:42.181Z,58.30
2019-04-26T10:20:42.182Z,57.76
2019-04-26T10:21:42.157Z,57.06
2019-04-26T10:22:42.437Z,56.76
2019-04-26T10:23:42.980Z,56.43
2019-04-26T10:24:42.130Z,54.51
2019-04-26T10:25:42.109Z,55.72
2019-04-26T10:26:42.109Z,55.85
2019-04-26T10:27:42.547Z,56.25
2019-04-26T10:28:42.080Z,57.56
2019-04-26T10:29:42.068Z,56.68
2019-04-26T10:30:42.621Z,57.39
2019-04-26T10:31:42.051Z,56.88
2019-04-26T10:32:42.047Z,56.38
2019-04-26T10:33:42.026Z,56.88
2019-04-26T10:34:42.832Z,56.58
2019-04-26T10:35:42.006Z,56.58
2019-04-26T10:36:41.997Z,56.68
2019-04-26T10:37:43.867Z,57.72
2019-04-26T10:38:42.971Z,57.21
2019-04-26T10:39:41.966Z,56.15
2019-04-26T10:40:41.954Z,56.45
2019-04-26T10:41:41.942Z,55.82
2019-04-26T10:42:41.977Z,55.29
2019-04-26T10:43:43.939Z,56.70
2019-04-26T10:44:41.926Z,54.76
2019-04-26T10:45:45.947Z,54.73
2019-04-26T10:46:54.837Z,53.63
2019-04-26T10:47:42.872Z,53.70
2019-04-26T10:48:45.513Z,53.12
2019-04-26T10:49:42.884Z,52.01
2019-04-26T10:50:41.843Z,51.93
2019-04-26T10:51:42.154Z,52.04
2019-04-26T10:52:41.823Z,52.94
2019-04-26T10:53:41.810Z,52.44
2019-04-26T10:54:45.797Z,53.07
2019-04-26T10:55:41.799Z,53.58
2019-04-26T10:56:41.785Z,54.48
2019-04-26T10:57:41.786Z,54.41
2019-04-26T10:58:41.771Z,54.21
2019-04-26T10:59:44.188Z,55.14
2019-04-26T11:00:41.747Z,55.24
2019-04-26T11:01:41.729Z,54.23
2019-04-26T11:02:41.718Z,54.61
2019-04-26T11:03:41.710Z,54.08
2019-04-26T11:04:42.864Z,54.18
2019-04-26T11:05:41.695Z,54.21
2019-04-26T11:06:41.670Z,54.18
2019-04-26T11:07:41.665Z,53.17
2019-04-26T11:08:41.684Z,53.65
2019-04-26T11:09:41.639Z,53.14
2019-04-26T11:10:48.382Z,52.84
2019-04-26T11:11:43.277Z,51.84
2019-04-26T11:12:43.394Z,52.92
2019-04-26T11:13:41.594Z,53.63
2019-04-26T11:14:41.583Z,52.01
2019-04-26T11:15:41.575Z,52.22
2019-04-26T11:17:51.112Z,52.64
2019-04-26T11:18:50.738Z,52.04
2019-04-26T11:19:50.740Z,52.04
2019-04-26T11:20:50.722Z,52.24
2019-04-26T11:21:54.430Z,53.14
2019-04-26T11:22:50.719Z,52.14
2019-04-26T11:23:50.708Z,52.44
2019-04-26T11:24:53.903Z,50.73
2019-04-26T11:25:50.666Z,49.54
2019-04-26T11:26:50.655Z,50.16
2019-04-26T11:27:50.661Z,51.40
2019-04-26T11:28:51.355Z,52.34
2019-04-26T11:29:53.961Z,52.94
2019-04-26T11:30:52.027Z,52.14
2019-04-26T11:31:50.614Z,52.61
2019-04-26T11:32:50.607Z,52.41
2019-04-26T11:33:50.689Z,51.81
2019-04-26T11:34:50.601Z,51.30
2019-04-26T11:35:50.573Z,51.81
2019-04-26T11:36:50.562Z,51.20
2019-04-26T11:37:55.052Z,51.12
2019-04-26T11:38:51.522Z,51.43
2019-04-26T11:39:50.588Z,52.44
2019-04-26T11:41:05.101Z,52.03
2019-04-26T11:41:51.493Z,52.74
2019-04-26T11:42:50.500Z,52.03
2019-04-26T11:43:52.880Z,52.41
2019-04-26T11:44:50.460Z,52.61
2019-04-26T11:45:50.609Z,51.43
2019-04-26T11:46:50.458Z,52.23
2019-04-26T11:47:56.240Z,52.67
2019-04-26T11:48:58.896Z,52.97
2019-04-26T11:49:52.225Z,52.87
2019-04-26T11:50:52.302Z,53.58
2019-04-26T11:51:50.393Z,53.98
2019-04-26T11:52:50.387Z,53.78
2019-04-26T11:53:50.377Z,53.58
2019-04-26T11:54:51.328Z,52.56
2019-04-26T11:55:50.350Z,52.16
2019-04-26T11:56:50.587Z,53.47
2019-04-26T11:57:50.324Z,53.50
2019-04-26T11:58:52.420Z,53.90
2019-04-26T11:59:51.299Z,53.90
2019-04-26T12:00:50.295Z,54.00
2019-04-26T12:01:50.284Z,54.61
2019-04-26T12:02:50.669Z,55.42
2019-04-26T12:03:51.644Z,55.32
2019-04-26T12:04:53.740Z,54.53
2019-04-26T12:05:50.256Z,54.94
2019-04-26T12:06:50.233Z,55.27
2019-04-26T12:07:50.225Z,55.77
2019-04-26T12:08:50.204Z,55.98
2019-04-26T12:09:50.192Z,55.70
2019-04-26T12:10:50.185Z,56.01
2019-04-26T12:12:03.660Z,56.51
2019-04-26T12:12:51.789Z,56.82
2019-04-26T12:13:50.152Z,56.61
2019-04-26T12:14:50.141Z,58.34
2019-04-26T12:15:50.131Z,57.20
2019-04-26T12:16:54.914Z,57.40
2019-04-26T12:17:58.301Z,56.59
2019-04-26T12:18:51.099Z,56.89
2019-04-26T12:19:52.300Z,56.66
2019-04-26T12:20:50.088Z,56.26
2019-04-26T12:21:50.080Z,55.52
2019-04-26T12:22:50.070Z,55.40
2019-04-26T12:23:51.308Z,54.79
2019-04-26T12:24:50.041Z,54.49
2019-04-26T12:25:50.017Z,54.18
2019-04-26T12:26:52.011Z,52.94
2019-04-26T12:27:53.341Z,53.12
2019-04-26T12:28:50.008Z,52.61
2019-04-26T12:29:49.977Z,52.29
2019-04-26T12:30:49.965Z,51.48
2019-04-26T12:31:49.987Z,50.87
2019-04-26T12:32:50.130Z,50.47
2019-04-26T12:33:49.944Z,50.70
2019-04-26T12:34:49.925Z,50.59
2019-04-26T12:35:56.792Z,50.98
2019-04-26T12:36:50.913Z,51.58
2019-04-26T12:37:50.618Z,51.71
2019-04-26T12:38:49.891Z,52.21
2019-04-26T12:39:49.863Z,52.94
2019-04-26T12:40:49.883Z,53.05
2019-04-26T12:41:49.862Z,53.58
2019-04-26T12:42:49.837Z,54.61
2019-04-26T12:43:49.830Z,56.86
2019-04-26T12:44:49.820Z,57.87
2019-04-26T12:45:51.545Z,58.78
2019-04-26T12:46:50.758Z,59.12
2019-04-26T12:47:49.792Z,59.72
2019-04-26T12:48:51.291Z,59.90
2019-04-26T12:49:49.762Z,58.89
2019-04-26T12:50:49.775Z,59.16
2019-04-26T12:51:52.057Z,58.53
2019-04-26T12:52:51.335Z,57.69
2019-04-26T12:53:49.717Z,57.72
2019-04-26T12:54:49.720Z,58.63